createdAt,value
2019-04-29T14:53:02.329Z,25.40
2019-04-29T14:55:31.803Z,25.93
2019-04-29T14:58:01.255Z,26.00
2019-04-29T15:00:50.816Z,25.83
2019-04-29T15:03:24.907Z,25.07
2019-04-29T15:05:54.492Z,26.33
2019-04-29T15:08:24.073Z,26.00
2019-04-29T15:10:54.132Z,27.07
2019-04-29T15:13:25.702Z,25.07
2019-04-29T15:16:09.638Z,25.70
2019-04-29T15:18:48.692Z,26.20
2019-04-29T15:21:15.830Z,25.73
2019-04-29T15:23:45.401Z,27.37
2019-04-29T15:26:14.936Z,26.80
2019-04-29T15:28:53.540Z,26.93
2019-04-29T15:31:23.903Z,23.47
2019-04-29T15:33:53.501Z,21.10
2019-04-29T15:36:23.050Z,21.03
2019-04-29T15:39:08.568Z,19.63
2019-04-29T15:41:29.462Z,18.63
2019-04-29T15:44:06.439Z,18.63
2019-04-29T15:46:25.992Z,19.07
2019-04-29T15:48:55.556Z,18.10
2019-04-29T15:51:25.040Z,17.30
2019-04-29T15:53:54.603Z,15.80
2019-04-29T15:56:28.731Z,15.60
2019-04-29T15:58:59.571Z,15.63
2019-04-29T16:01:28.180Z,16.43
2019-04-29T16:03:59.250Z,15.83
2019-04-29T16:06:39.982Z,15.93
2019-04-29T16:09:10.094Z,15.90
2019-04-29T16:11:41.224Z,16.33
2019-04-29T16:14:12.321Z,16.30
2019-04-29T16:16:41.808Z,15.63
2019-04-29T16:19:11.251Z,15.07
2019-04-29T16:21:41.772Z,15.60
2019-04-29T16:26:42.578Z,15.97
2019-04-29T16:29:15.144Z,15.50
2019-04-29T16:31:43.182Z,15.13
2019-04-29T16:34:12.649Z,15.60
2019-04-29T16:39:13.487Z,16.13
2019-04-29T16:41:44.705Z,15.83
2019-04-29T16:44:34.033Z,15.23
2019-04-29T16:46:47.238Z,15.87
2019-04-29T16:49:16.750Z,15.83
2019-04-29T16:51:47.953Z,14.80
2019-04-29T16:54:20.516Z,16.10
2019-04-29T16:56:48.796Z,15.93
2019-04-29T16:59:18.203Z,16.07
2019-04-29T17:01:47.824Z,15.33
2019-04-29T17:04:17.309Z,19.97
2019-04-29T17:09:31.649Z,23.47
2019-04-29T17:12:02.292Z,38.57
2019-04-29T17:14:31.700Z,26.73
2019-04-29T17:17:03.952Z,22.40
2019-04-29T17:19:35.043Z,25.77
2019-04-29T17:24:37.631Z,15.07
2019-04-29T17:27:14.171Z,30.50
2019-04-29T17:29:55.549Z,17.37
2019-04-29T17:32:44.624Z,15.17
2019-04-29T17:35:10.665Z,14.77
2019-04-29T17:35:15.681Z,15.30
2019-04-29T17:35:16.215Z,16.93
2019-04-29T17:35:17.595Z,16.27
2019-04-29T17:35:17.729Z,24.07
2019-04-29T17:37:40.490Z,14.57
2019-04-29T17:40:11.889Z,14.23
2019-04-29T17:42:43.077Z,13.00
2019-04-29T17:45:27.071Z,12.50
2019-04-29T17:47:59.935Z,12.10
2019-04-29T17:50:38.618Z,13.17
2019-04-29T17:53:08.499Z,11.97
2019-04-29T17:55:42.689Z,12.63
2019-04-29T17:58:19.977Z,12.73
2019-04-29T18:00:57.902Z,12.47
2019-04-29T18:03:27.267Z,11.90
2019-04-29T18:05:58.363Z,12.93
2019-04-29T18:08:44.926Z,12.70
2019-04-29T18:11:15.038Z,11.77
2019-04-29T18:13:45.842Z,10.93
2019-04-29T18:16:22.146Z,11.50
2019-04-29T18:18:57.313Z,11.20
2019-04-29T18:21:25.003Z,11.73
2019-04-29T18:23:59.258Z,11.70
2019-04-29T18:26:35.827Z,12.57
2019-04-29T18:29:07.963Z,13.97
2019-04-29T18:31:36.927Z,18.27
2019-04-29T18:34:06.409Z,18.13
2019-04-29T18:36:36.057Z,23.17
2019-04-29T18:39:09.077Z,41.47
2019-04-29T18:41:38.505Z,36.50
2019-04-29T18:44:08.088Z,24.80
2019-04-29T18:46:37.672Z,21.07
2019-04-29T18:49:07.305Z,76.33
2019-04-29T18:51:36.822Z,33.00
2019-04-29T18:54:06.451Z,27.47
2019-04-29T18:56:36.657Z,22.93
2019-04-29T18:59:07.484Z,19.57
2019-04-29T19:01:36.957Z,18.90
2019-04-29T19:04:16.149Z,20.03
2019-04-29T19:06:41.187Z,20.47
2019-04-29T19:09:19.976Z,21.13
2019-04-29T19:11:43.491Z,19.67
2019-04-29T19:14:15.096Z,18.93
2019-04-29T19:16:46.155Z,20.00
2019-04-29T19:19:15.682Z,21.10
2019-04-29T19:21:48.155Z,21.70
2019-04-29T19:24:19.183Z,20.53
2019-04-29T19:26:55.646Z,21.13
2019-04-29T19:29:21.194Z,21.20
2019-04-29T19:31:50.822Z,21.47
2019-04-29T19:34:20.353Z,18.73
2019-04-29T19:36:50.729Z,21.57
2019-04-29T19:39:21.804Z,22.17
2019-04-29T19:41:52.289Z,21.87
2019-04-29T19:44:21.700Z,22.00
2019-04-29T19:46:51.204Z,22.63
2019-04-29T19:49:20.617Z,22.07
2019-04-29T19:51:50.077Z,23.30
2019-04-29T19:54:24.475Z,23.10
2019-04-29T19:56:55.612Z,23.07
2019-04-29T19:59:22.258Z,23.70
2019-04-29T20:02:02.046Z,24.53
2019-04-29T20:04:31.477Z,26.73
2019-04-29T20:07:06.510Z,25.97
2019-04-29T20:09:33.313Z,25.77
2019-04-29T20:12:11.323Z,24.17
2019-04-29T20:14:37.002Z,24.40
2019-04-29T20:17:14.143Z,23.43
2019-04-29T20:19:45.716Z,23.17
2019-04-29T20:22:15.928Z,24.43
2019-04-29T20:24:49.749Z,24.67
2019-04-29T20:27:16.964Z,24.63
2019-04-29T20:29:46.604Z,24.17
2019-04-29T20:32:16.739Z,24.90
2019-04-29T20:34:47.206Z,25.30
2019-04-29T20:37:19.781Z,26.10
2019-04-29T20:39:52.044Z,26.70
2019-04-29T20:42:19.221Z,25.73
2019-04-29T20:44:49.483Z,26.47
2019-04-29T20:47:22.888Z,26.53
2019-04-29T20:49:50.289Z,28.00
2019-04-29T20:52:39.657Z,30.00
2019-04-29T20:55:09.865Z,30.10
2019-04-29T20:57:39.982Z,31.27
2019-04-29T21:00:10.111Z,33.00
2019-04-29T21:02:39.817Z,33.20
2019-04-29T21:05:19.871Z,32.70
2019-04-29T21:07:41.349Z,33.53
2019-04-29T21:10:11.125Z,34.27
2019-04-29T21:12:42.187Z,34.23
2019-04-29T21:15:16.167Z,32.93
2019-04-29T21:17:46.207Z,37.00
2019-04-29T21:20:15.711Z,35.17
2019-04-29T21:22:45.577Z,33.10
2019-04-29T21:25:15.208Z,31.53
2019-04-29T21:27:46.964Z,31.33
2019-04-29T21:30:16.009Z,29.80
2019-04-29T21:32:45.553Z,30.83
2019-04-29T21:35:26.975Z,32.30
2019-04-29T21:38:17.914Z,32.23
2019-04-29T21:40:49.385Z,32.60
2019-04-29T21:43:20.646Z,30.93
2019-04-29T21:45:50.175Z,32.17
2019-04-29T21:48:25.649Z,33.03
2019-04-29T21:50:50.787Z,30.53
2019-04-29T21:53:20.454Z,28.97
2019-04-29T21:55:49.941Z,28.50
2019-04-29T21:58:19.548Z,27.53
2019-04-29T22:00:50.015Z,29.33
2019-04-29T22:03:19.828Z,28.80
2019-04-29T22:05:53.468Z,28.40
2019-04-29T22:08:27.163Z,25.70
2019-04-29T22:11:04.387Z,25.73
2019-04-29T22:13:30.647Z,24.73
2019-04-29T22:16:00.211Z,25.47
2019-04-29T22:18:29.847Z,24.50
2019-04-29T22:20:59.630Z,25.23
2019-04-29T22:23:29.110Z,24.67
2019-04-29T22:25:59.015Z,22.43
2019-04-29T22:28:28.555Z,23.73
2019-04-29T22:30:58.169Z,23.87
2019-04-29T22:33:29.660Z,24.53
2019-04-29T22:35:59.020Z,24.83
2019-04-29T22:38:28.758Z,25.10
2019-04-29T22:40:59.852Z,25.77
2019-04-29T22:43:33.821Z,27.50
2019-04-29T22:46:09.512Z,23.27
2019-04-29T22:48:40.544Z,22.63
2019-04-29T22:51:10.145Z,22.80
2019-04-29T22:53:39.992Z,22.73
2019-04-29T22:56:14.182Z,22.43
2019-04-29T22:58:43.965Z,24.47
2019-04-29T23:01:13.389Z,25.50
2019-04-29T23:03:42.843Z,25.53
2019-04-29T23:06:12.325Z,27.20
2019-04-29T23:08:41.853Z,26.57
2019-04-29T23:11:11.312Z,24.80
2019-04-29T23:13:40.762Z,25.03
2019-04-29T23:16:10.353Z,25.10
2019-04-29T23:18:42.294Z,22.63
2019-04-29T23:21:16.493Z,23.50
2019-04-29T23:23:59.581Z,23.90
2019-04-29T23:26:29.180Z,22.90
2019-04-29T23:28:59.473Z,22.73
2019-04-29T23:31:29.847Z,22.43
2019-04-29T23:33:59.366Z,23.53
2019-04-29T23:36:28.885Z,24.23
2019-04-29T23:38:58.346Z,22.97
2019-04-29T23:41:32.997Z,22.97
2019-04-29T23:44:00.001Z,23.50
2019-04-29T23:46:34.183Z,21.80
2019-04-29T23:49:03.179Z,24.03
2019-04-29T23:51:36.308Z,23.30
2019-04-29T23:54:07.874Z,22.23
2019-04-29T23:56:38.570Z,23.00
2019-04-29T23:59:18.852Z,23.40
